createdAt,value
2022-10-28T00:00:11.886Z,4.80
2022-10-28T00:02:40.917Z,3.97
2022-10-28T00:05:08.228Z,5.18
2022-10-28T00:07:35.222Z,3.50
2022-10-28T00:10:02.138Z,3.15
2022-10-28T00:12:28.886Z,3.70
2022-10-28T00:14:55.667Z,3.65
2022-10-28T00:17:25.374Z,4.03
2022-10-28T00:19:52.125Z,4.25
2022-10-28T00:22:18.922Z,3.67
2022-10-28T00:24:45.695Z,4.35
2022-10-28T00:27:12.505Z,3.30
2022-10-28T00:29:39.348Z,3.95
2022-10-28T00:32:06.134Z,4.63
2022-10-28T00:34:32.908Z,3.72
2022-10-28T00:36:59.685Z,4.25
2022-10-28T00:39:27.582Z,4.22
2022-10-28T00:41:57.885Z,3.50
2022-10-28T00:44:42.671Z,4.05
2022-10-28T00:47:24.594Z,4.03
2022-10-28T00:49:53.539Z,3.17
2022-10-28T00:52:24.711Z,3.95
2022-10-28T00:54:52.669Z,3.47
2022-10-28T00:57:25.242Z,3.50
2022-10-28T00:59:54.102Z,3.58
2022-10-28T01:02:21.626Z,4.00
2022-10-28T01:04:48.839Z,3.17
2022-10-28T01:07:17.060Z,4.28
2022-10-28T01:09:44.407Z,4.57
2022-10-28T01:12:21.004Z,2.92
2022-10-28T01:15:04.646Z,4.63
2022-10-28T01:17:37.465Z,3.90
2022-10-28T01:20:25.873Z,3.60
2022-10-28T01:23:07.502Z,4.32
2022-10-28T01:26:03.083Z,2.92
2022-10-28T01:29:07.516Z,3.03
2022-10-28T01:31:37.033Z,3.30
2022-10-28T01:34:34.195Z,2.85
2022-10-28T01:37:14.918Z,2.85
2022-10-28T01:40:03.742Z,3.33
2022-10-28T01:42:48.159Z,2.97
2022-10-28T01:45:21.737Z,3.33
2022-10-28T01:48:01.675Z,3.38
2022-10-28T01:50:52.006Z,4.45
2022-10-28T01:53:22.344Z,2.92
2022-10-28T01:55:53.596Z,3.90
2022-10-28T01:58:24.650Z,2.95
2022-10-28T02:00:52.028Z,2.92
2022-10-28T02:03:18.940Z,3.17
2022-10-28T02:05:49.574Z,3.50
2022-10-28T02:08:19.127Z,3.17
2022-10-28T02:11:01.042Z,3.17
2022-10-28T02:13:49.302Z,4.40
2022-10-28T02:16:42.340Z,3.80
2022-10-28T02:22:04.617Z,3.42
2022-10-28T02:25:02.458Z,3.47
2022-10-28T02:27:44.790Z,4.28
2022-10-28T02:30:19.835Z,3.10
2022-10-28T02:32:52.345Z,3.50
2022-10-28T02:35:27.112Z,3.85
2022-10-28T02:37:55.520Z,3.60
2022-10-28T02:40:27.246Z,3.55
2022-10-28T02:43:02.366Z,3.63
2022-10-28T02:45:35.694Z,3.78
2022-10-28T02:48:08.680Z,3.15
2022-10-28T02:50:42.350Z,3.97
2022-10-28T02:53:19.277Z,3.53
2022-10-28T02:55:52.613Z,3.72
2022-10-28T02:58:19.446Z,2.83
2022-10-28T03:00:47.359Z,3.90
2022-10-28T03:03:14.367Z,3.58
2022-10-28T03:05:41.214Z,3.45
2022-10-28T03:08:08.022Z,3.53
2022-10-28T03:10:35.071Z,4.18
2022-10-28T03:13:01.875Z,3.80
2022-10-28T03:15:28.644Z,4.05
2022-10-28T03:17:55.715Z,3.42
2022-10-28T03:20:22.698Z,2.90
2022-10-28T03:22:49.634Z,3.60
2022-10-28T03:25:16.460Z,2.78
2022-10-28T03:27:43.218Z,3.08
2022-10-28T03:30:10.562Z,3.03
2022-10-28T03:32:37.301Z,3.50
2022-10-28T03:35:04.510Z,3.63
2022-10-28T03:37:31.295Z,3.47
2022-10-28T03:39:59.180Z,3.78
2022-10-28T03:42:25.985Z,3.15
2022-10-28T03:44:52.743Z,4.10
2022-10-28T03:47:19.574Z,3.47
2022-10-28T03:49:46.325Z,3.22
2022-10-28T03:52:13.074Z,3.72
2022-10-28T03:54:39.888Z,4.05
2022-10-28T03:57:06.785Z,4.93
2022-10-28T03:59:33.573Z,3.33
2022-10-28T04:02:00.430Z,3.70
2022-10-28T04:04:29.992Z,3.58
2022-10-28T04:06:57.639Z,3.20
2022-10-28T04:09:24.423Z,2.67
2022-10-28T04:11:51.378Z,3.80
2022-10-28T04:14:18.254Z,3.97
2022-10-28T04:16:45.073Z,3.53
2022-10-28T04:19:11.827Z,4.45
2022-10-28T04:21:38.635Z,4.93
2022-10-28T04:24:06.011Z,4.13
2022-10-28T04:26:32.767Z,4.88
2022-10-28T04:28:59.591Z,3.92
2022-10-28T04:31:26.391Z,4.07
2022-10-28T04:33:53.171Z,3.80
2022-10-28T04:36:20.065Z,4.68
2022-10-28T04:38:46.870Z,4.32
2022-10-28T04:41:15.558Z,4.57
2022-10-28T04:43:42.313Z,4.13
2022-10-28T04:46:09.159Z,4.32
2022-10-28T04:48:36.406Z,3.92
2022-10-28T04:51:03.455Z,5.18
2022-10-28T04:53:30.341Z,4.80
2022-10-28T04:55:58.514Z,4.75
2022-10-28T04:58:26.417Z,4.35
2022-10-28T05:00:53.196Z,5.57
2022-10-28T05:03:19.993Z,4.05
2022-10-28T05:05:47.666Z,4.82
2022-10-28T05:08:14.562Z,4.45
2022-10-28T05:10:41.353Z,5.20
2022-10-28T05:13:08.176Z,5.47
2022-10-28T05:15:35.065Z,5.05
2022-10-28T05:18:01.850Z,5.05
2022-10-28T05:20:28.674Z,5.13
2022-10-28T05:22:57.032Z,4.53
2022-10-28T05:25:24.238Z,4.53
2022-10-28T05:27:51.193Z,4.88
2022-10-28T05:30:18.618Z,5.22
2022-10-28T05:32:46.770Z,5.15
2022-10-28T05:35:15.338Z,5.30
2022-10-28T05:37:43.142Z,4.97
2022-10-28T05:40:10.905Z,3.72
2022-10-28T05:42:42.106Z,4.32
2022-10-28T05:45:10.312Z,3.75
2022-10-28T05:47:39.288Z,4.20
2022-10-28T05:50:07.282Z,3.88
2022-10-28T05:52:34.130Z,5.57
2022-10-28T05:55:00.925Z,5.00
2022-10-28T05:57:27.692Z,4.05
2022-10-28T05:59:54.495Z,5.43
2022-10-28T06:02:21.270Z,4.03
2022-10-28T06:04:48.146Z,3.72
2022-10-28T06:07:14.930Z,3.00
2022-10-28T06:09:41.705Z,4.22
2022-10-28T06:12:07.167Z,3.35
2022-10-28T06:14:33.930Z,3.67
2022-10-28T06:17:01.934Z,3.25
2022-10-28T06:19:28.730Z,4.20
2022-10-28T06:21:55.540Z,3.45
2022-10-28T06:24:22.405Z,3.20
2022-10-28T06:26:49.193Z,3.65
2022-10-28T06:29:16.042Z,4.05
2022-10-28T06:31:43.030Z,3.83
2022-10-28T06:34:10.384Z,4.18
2022-10-28T06:36:37.971Z,4.55
2022-10-28T06:39:05.536Z,3.70
2022-10-28T06:41:33.118Z,4.03
2022-10-28T06:44:00.055Z,3.80
2022-10-28T06:46:27.227Z,4.68
2022-10-28T06:48:55.976Z,4.53
2022-10-28T06:51:23.718Z,4.75
2022-10-28T06:53:51.582Z,3.60
2022-10-28T06:56:18.761Z,3.92
2022-10-28T06:58:50.820Z,4.97
2022-10-28T07:01:17.969Z,3.60
2022-10-28T07:03:45.371Z,4.13
2022-10-28T07:08:44.491Z,3.63
2022-10-28T07:11:11.308Z,3.35
2022-10-28T07:13:38.144Z,3.40
2022-10-28T07:16:05.298Z,4.35
2022-10-28T07:18:32.093Z,3.45
2022-10-28T07:21:00.291Z,3.90
2022-10-28T07:23:28.160Z,4.57
2022-10-28T07:25:56.251Z,3.50
2022-10-28T07:28:24.470Z,4.00
2022-10-28T07:30:51.355Z,4.15
2022-10-28T07:33:18.398Z,3.25
2022-10-28T07:35:45.323Z,5.25
2022-10-28T07:38:12.441Z,3.28
2022-10-28T07:40:39.225Z,4.13
2022-10-28T07:43:06.012Z,3.45
2022-10-28T07:45:34.075Z,3.63
2022-10-28T07:48:00.867Z,3.35
2022-10-28T07:50:27.728Z,4.05
2022-10-28T07:52:54.815Z,4.20
2022-10-28T07:55:21.895Z,3.75
2022-10-28T07:57:48.796Z,4.00
2022-10-28T08:00:15.957Z,3.72
2022-10-28T08:02:42.786Z,3.13
2022-10-28T08:05:09.919Z,3.83
2022-10-28T08:07:38.641Z,3.65
2022-10-28T08:10:06.753Z,3.55
2022-10-28T08:12:33.681Z,3.45
2022-10-28T08:15:00.457Z,4.25
2022-10-28T08:17:27.317Z,5.07
2022-10-28T08:19:54.106Z,3.72
2022-10-28T08:22:20.928Z,3.85
2022-10-28T08:24:49.546Z,3.80
2022-10-28T08:27:16.323Z,3.42
2022-10-28T08:29:43.124Z,4.03
2022-10-28T08:32:10.015Z,3.70
2022-10-28T08:34:39.322Z,4.55
2022-10-28T08:37:09.554Z,4.30
2022-10-28T08:39:36.585Z,3.33
2022-10-28T08:42:22.655Z,3.28
2022-10-28T08:45:30.384Z,4.13
2022-10-28T08:48:18.798Z,4.68
2022-10-28T08:50:55.005Z,3.40
2022-10-28T08:53:27.093Z,3.92
2022-10-28T08:56:02.232Z,3.78
2022-10-28T08:58:34.065Z,3.17
2022-10-28T09:01:01.378Z,3.63
2022-10-28T09:03:39.169Z,3.60
2022-10-28T09:06:08.041Z,4.43
2022-10-28T09:08:55.821Z,4.05
2022-10-28T09:11:37.605Z,3.80
2022-10-28T09:14:22.008Z,4.70
2022-10-28T09:17:01.512Z,2.80
2022-10-28T09:19:51.978Z,3.58
2022-10-28T09:22:22.486Z,3.08
2022-10-28T09:25:01.929Z,4.07
2022-10-28T09:27:44.766Z,3.30
2022-10-28T09:30:31.799Z,2.88
2022-10-28T09:33:27.811Z,2.80
2022-10-28T09:35:56.151Z,1.35
2022-10-28T09:38:25.845Z,1.85
2022-10-28T09:41:01.607Z,2.67
2022-10-28T09:43:33.997Z,1.98
2022-10-28T09:48:37.019Z,1.77
2022-10-28T09:51:04.193Z,2.03
2022-10-28T09:53:36.017Z,2.53
2022-10-28T09:56:04.698Z,2.35
2022-10-28T09:58:35.759Z,1.52
2022-10-28T10:01:04.918Z,2.08
2022-10-28T10:03:32.606Z,1.13
2022-10-28T10:06:08.558Z,1.63
2022-10-28T10:08:37.478Z,0.90
2022-10-28T10:11:28.785Z,0.98
2022-10-28T10:13:58.077Z,0.93
2022-10-28T10:16:42.585Z,1.52
2022-10-28T10:19:11.195Z,0.98
2022-10-28T10:21:49.818Z,1.00
2022-10-28T10:24:33.925Z,0.98
2022-10-28T10:27:09.927Z,1.17
2022-10-28T10:29:37.944Z,1.00
2022-10-28T10:32:16.469Z,1.05
2022-10-28T10:34:46.709Z,1.08
2022-10-28T10:37:20.242Z,1.35
2022-10-28T10:40:03.833Z,1.23
2022-10-28T10:42:30.680Z,1.42
2022-10-28T10:45:14.990Z,0.77
2022-10-28T10:47:42.299Z,0.93
2022-10-28T10:50:23.402Z,1.70
2022-10-28T10:52:56.982Z,1.08
2022-10-28T10:55:33.654Z,1.52
2022-10-28T10:58:01.710Z,1.05
2022-10-28T11:00:36.429Z,1.20
2022-10-28T11:03:13.691Z,0.85
2022-10-28T11:05:55.094Z,1.27
2022-10-28T11:08:33.449Z,1.20
2022-10-28T11:11:21.817Z,0.77
2022-10-28T11:14:01.811Z,1.65
2022-10-28T11:16:28.621Z,1.30
2022-10-28T11:18:55.416Z,1.65
2022-10-28T11:21:37.003Z,0.80
2022-10-28T11:24:22.265Z,1.77
2022-10-28T11:27:04.199Z,1.08
2022-10-28T11:29:31.324Z,1.27
2022-10-28T11:32:18.220Z,1.17
2022-10-28T11:35:13.956Z,1.35
2022-10-28T11:38:06.935Z,1.15
2022-10-28T11:40:52.557Z,1.38
2022-10-28T11:43:38.747Z,2.05
2022-10-28T11:46:27.270Z,0.80
2022-10-28T11:49:09.197Z,1.13
2022-10-28T11:52:01.616Z,2.15
2022-10-28T11:55:06.022Z,2.22
2022-10-28T11:57:59.742Z,1.33
2022-10-28T12:00:52.453Z,1.75
2022-10-28T12:03:41.147Z,1.20
2022-10-28T12:06:17.147Z,1.35
2022-10-28T12:12:02.119Z,1.92
2022-10-28T12:14:40.160Z,1.77
2022-10-28T12:17:34.908Z,1.70
2022-10-28T12:20:09.504Z,0.98
2022-10-28T12:23:05.606Z,1.10
2022-10-28T12:25:35.759Z,1.75
2022-10-28T12:28:07.455Z,1.50
2022-10-28T12:30:40.280Z,1.30
2022-10-28T12:33:20.274Z,1.00
2022-10-28T12:36:10.154Z,1.38
2022-10-28T12:38:40.875Z,2.10
2022-10-28T12:41:27.536Z,1.60
2022-10-28T12:44:14.941Z,1.30
2022-10-28T12:46:44.723Z,1.38
2022-10-28T12:49:37.332Z,1.33
2022-10-28T12:52:40.276Z,1.85
2022-10-28T12:55:39.884Z,1.27
2022-10-28T12:58:18.909Z,1.45
2022-10-28T13:01:07.126Z,1.60
2022-10-28T13:03:34.064Z,1.20
2022-10-28T13:09:22.903Z,1.50
2022-10-28T13:12:17.994Z,1.67
2022-10-28T13:14:59.749Z,1.35
2022-10-28T13:17:39.297Z,1.48
2022-10-28T13:20:15.655Z,1.23
2022-10-28T13:23:06.923Z,1.38
2022-10-28T13:25:38.444Z,1.55
2022-10-28T13:28:05.829Z,1.70
2022-10-28T13:30:32.726Z,1.40
2022-10-28T13:33:16.591Z,1.60
2022-10-28T13:35:44.485Z,1.65
2022-10-28T13:38:13.305Z,1.52
2022-10-28T13:40:40.110Z,1.70
2022-10-28T13:43:21.332Z,1.05
2022-10-28T13:45:54.405Z,1.60
2022-10-28T13:48:30.463Z,2.03
2022-10-28T13:51:09.400Z,1.58
2022-10-28T13:53:45.297Z,1.40
2022-10-28T13:56:29.751Z,1.58
2022-10-28T13:59:16.095Z,2.00
2022-10-28T14:02:01.659Z,1.88
2022-10-28T14:04:37.575Z,1.42
2022-10-28T14:07:12.731Z,1.50
2022-10-28T14:09:41.420Z,2.15
2022-10-28T14:12:33.068Z,2.38
2022-10-28T14:15:28.375Z,2.53
2022-10-28T14:18:41.826Z,1.60
2022-10-28T14:21:02.039Z,1.67
2022-10-28T14:23:28.958Z,1.83
2022-10-28T14:25:56.309Z,1.35
2022-10-28T14:28:31.973Z,1.63
2022-10-28T14:31:11.528Z,1.42
2022-10-28T14:33:41.357Z,1.88
2022-10-28T14:36:40.315Z,1.70
2022-10-28T14:39:40.742Z,1.40
2022-10-28T14:42:28.381Z,1.48
2022-10-28T14:45:06.383Z,1.80
2022-10-28T14:47:55.200Z,1.38
2022-10-28T14:50:39.803Z,1.38
2022-10-28T14:53:14.000Z,1.75
2022-10-28T14:55:44.800Z,1.70
2022-10-28T14:58:14.433Z,1.35
2022-10-28T15:00:48.439Z,1.38
2022-10-28T15:03:15.513Z,1.50
2022-10-28T15:05:42.306Z,1.10
2022-10-28T15:08:10.427Z,1.65
2022-10-28T15:10:39.429Z,0.95
2022-10-28T15:13:18.162Z,1.40
2022-10-28T15:15:58.245Z,1.42
2022-10-28T15:21:11.157Z,1.15
2022-10-28T15:23:38.160Z,1.15
2022-10-28T15:26:07.230Z,1.02
2022-10-28T15:28:34.255Z,1.27
2022-10-28T15:31:01.067Z,1.48
2022-10-28T15:33:39.655Z,1.42
2022-10-28T15:36:26.387Z,1.92
2022-10-28T15:38:59.117Z,1.50
2022-10-28T15:41:25.861Z,1.45
2022-10-28T15:43:58.805Z,1.85
2022-10-28T15:46:26.494Z,1.35
2022-10-28T15:48:57.845Z,1.75
2022-10-28T15:51:25.134Z,1.50
2022-10-28T15:53:56.157Z,1.42
2022-10-28T15:56:25.394Z,1.48
2022-10-28T15:59:07.150Z,1.50
2022-10-28T16:01:40.264Z,1.30
2022-10-28T16:04:29.969Z,1.17
2022-10-28T16:06:57.999Z,1.52
2022-10-28T16:09:29.429Z,2.58
2022-10-28T16:11:58.805Z,2.45
2022-10-28T16:14:48.822Z,2.08
2022-10-28T16:17:17.195Z,1.63
2022-10-28T16:20:02.835Z,2.13
2022-10-28T16:22:31.009Z,1.27
2022-10-28T16:24:57.939Z,1.42
2022-10-28T16:27:30.456Z,1.25
2022-10-28T16:32:28.658Z,1.67
2022-10-28T16:34:58.925Z,2.03
2022-10-28T16:37:28.436Z,2.08
2022-10-28T16:39:56.130Z,1.42
2022-10-28T16:42:24.007Z,1.80
2022-10-28T16:44:51.082Z,1.30
2022-10-28T16:47:20.176Z,1.80
2022-10-28T16:49:54.254Z,1.75
2022-10-28T16:52:27.666Z,1.95
2022-10-28T16:54:54.849Z,2.13
2022-10-28T16:59:54.313Z,1.70
2022-10-28T17:02:34.865Z,2.10
2022-10-28T17:05:05.006Z,1.40
2022-10-28T17:07:31.787Z,1.38
2022-10-28T17:09:58.764Z,1.75
2022-10-28T17:12:27.151Z,1.80
2022-10-28T17:14:53.920Z,1.35
2022-10-28T17:17:20.822Z,1.20
2022-10-28T17:19:47.824Z,1.63
2022-10-28T17:22:14.835Z,0.98
2022-10-28T17:24:41.740Z,1.08
2022-10-28T17:27:08.542Z,1.45
2022-10-28T17:29:35.440Z,1.60
2022-10-28T17:32:02.523Z,2.15
2022-10-28T17:34:29.359Z,1.10
2022-10-28T17:36:56.392Z,1.73
2022-10-28T17:39:26.165Z,0.82
2022-10-28T17:41:53.811Z,1.40
2022-10-28T17:44:20.782Z,1.50
2022-10-28T17:46:51.497Z,0.57
2022-10-28T17:49:18.930Z,1.20
2022-10-28T17:51:46.138Z,1.60
2022-10-28T17:54:13.114Z,1.42
2022-10-28T17:56:42.180Z,1.17
2022-10-28T17:59:09.547Z,1.40
2022-10-28T18:01:36.787Z,1.30
2022-10-28T18:04:04.691Z,1.30
2022-10-28T18:06:31.548Z,1.48
2022-10-28T18:08:58.592Z,1.33
2022-10-28T18:11:27.429Z,1.73
2022-10-28T18:13:56.351Z,1.45
2022-10-28T18:16:27.825Z,1.70
2022-10-28T18:18:55.643Z,2.10
2022-10-28T18:21:24.543Z,1.70
2022-10-28T18:23:52.941Z,2.00
2022-10-28T18:26:20.987Z,1.77
2022-10-28T18:28:48.946Z,2.17
2022-10-28T18:31:20.791Z,1.90
2022-10-28T18:33:49.207Z,2.72
2022-10-28T18:36:21.870Z,1.48
2022-10-28T18:41:20.677Z,2.22
2022-10-28T18:43:47.852Z,1.33
2022-10-28T18:46:14.786Z,1.92
2022-10-28T18:48:41.663Z,1.60
2022-10-28T18:51:12.008Z,1.50
2022-10-28T18:53:40.918Z,2.28
2022-10-28T18:56:11.090Z,1.80
2022-10-28T18:58:38.174Z,1.95
2022-10-28T19:01:16.659Z,2.28
2022-10-28T19:03:44.566Z,1.95
2022-10-28T19:06:14.214Z,2.63
2022-10-28T19:08:41.216Z,2.20
2022-10-28T19:11:10.006Z,1.88
2022-10-28T19:13:39.356Z,2.40
2022-10-28T19:16:06.879Z,2.55
2022-10-28T19:18:35.626Z,2.40
2022-10-28T19:21:10.117Z,2.20
2022-10-28T19:23:38.048Z,1.83
2022-10-28T19:26:05.686Z,2.10
2022-10-28T19:28:44.088Z,2.90
2022-10-28T19:31:13.974Z,2.70
2022-10-28T19:33:43.178Z,2.50
2022-10-28T19:36:18.936Z,2.40
2022-10-28T19:38:47.509Z,2.63
2022-10-28T19:41:20.082Z,2.05
2022-10-28T19:43:47.572Z,4.18
2022-10-28T19:46:19.465Z,2.33
2022-10-28T19:48:51.158Z,1.85
2022-10-28T19:51:20.356Z,2.87
2022-10-28T19:53:52.584Z,3.78
2022-10-28T19:56:20.352Z,3.35
2022-10-28T19:58:49.590Z,3.85
2022-10-28T20:01:17.644Z,5.35
2022-10-28T20:03:49.001Z,3.67
2022-10-28T20:06:16.946Z,4.72
2022-10-28T20:08:46.387Z,3.63
2022-10-28T20:11:15.404Z,2.40
2022-10-28T20:13:43.091Z,2.08
2022-10-28T20:16:14.393Z,2.78
2022-10-28T20:18:41.714Z,3.22
2022-10-28T20:21:13.695Z,2.33
2022-10-28T20:23:41.626Z,2.13
2022-10-28T20:26:08.946Z,2.10
2022-10-28T20:28:36.474Z,2.83
2022-10-28T20:31:04.560Z,1.98
2022-10-28T20:33:31.477Z,2.40
2022-10-28T20:35:58.655Z,2.92
2022-10-28T20:38:26.121Z,2.45
2022-10-28T20:40:58.435Z,3.05
2022-10-28T20:43:27.948Z,2.50
2022-10-28T20:46:00.581Z,1.80
2022-10-28T20:51:02.269Z,3.35
2022-10-28T20:53:33.341Z,2.05
2022-10-28T20:56:01.694Z,1.85
2022-10-28T20:58:31.793Z,1.83
2022-10-28T21:01:07.272Z,2.40
2022-10-28T21:03:34.428Z,3.90
2022-10-28T21:06:04.142Z,2.20
2022-10-28T21:08:31.169Z,3.15
2022-10-28T21:11:02.319Z,2.55
2022-10-28T21:13:29.348Z,2.20
2022-10-28T21:15:57.743Z,3.22
2022-10-28T21:18:25.428Z,3.42
2022-10-28T21:20:57.474Z,2.33
2022-10-28T21:23:25.387Z,1.98
2022-10-28T21:25:56.959Z,3.05
2022-10-28T21:28:24.366Z,2.60
2022-10-28T21:30:51.140Z,2.47
2022-10-28T21:33:18.956Z,2.22
2022-10-28T21:35:55.779Z,2.85
2022-10-28T21:38:22.681Z,2.50
2022-10-28T21:40:49.438Z,2.42
2022-10-28T21:43:16.520Z,2.15
2022-10-28T21:45:43.310Z,1.77
2022-10-28T21:48:10.124Z,1.95
2022-10-28T21:50:36.916Z,3.30
2022-10-28T21:53:04.234Z,2.72
2022-10-28T21:55:46.086Z,2.33
2022-10-28T21:58:13.832Z,3.33
2022-10-28T22:00:40.704Z,2.47
2022-10-28T22:03:07.548Z,2.55
2022-10-28T22:05:34.359Z,2.00
2022-10-28T22:08:03.190Z,2.88
2022-10-28T22:10:31.895Z,3.08
2022-10-28T22:12:58.752Z,2.97
2022-10-28T22:15:25.515Z,3.53
2022-10-28T22:17:52.568Z,2.30
2022-10-28T22:20:22.796Z,2.95
2022-10-28T22:22:49.606Z,1.67
2022-10-28T22:25:18.707Z,2.22
2022-10-28T22:27:45.513Z,2.78
2022-10-28T22:30:13.524Z,2.45
2022-10-28T22:32:40.504Z,2.30
2022-10-28T22:35:07.761Z,1.83
2022-10-28T22:37:34.548Z,2.38
2022-10-28T22:40:01.370Z,2.83
2022-10-28T22:42:28.181Z,3.03
2022-10-28T22:44:55.013Z,2.25
2022-10-28T22:47:21.780Z,2.30
2022-10-28T22:49:48.544Z,2.28
2022-10-28T22:52:15.346Z,2.20
2022-10-28T22:54:42.104Z,2.20
2022-10-28T22:57:08.945Z,1.77
2022-10-28T22:59:35.917Z,2.45
2022-10-28T23:02:02.931Z,2.63
2022-10-28T23:04:29.764Z,3.15
2022-10-28T23:06:56.538Z,2.47
2022-10-28T23:09:23.356Z,2.15
2022-10-28T23:11:50.120Z,2.88
2022-10-28T23:14:16.910Z,1.95
2022-10-28T23:16:43.692Z,1.88
2022-10-28T23:19:10.476Z,1.92
2022-10-28T23:21:37.233Z,2.10
2022-10-28T23:24:04.305Z,2.20
2022-10-28T23:26:31.089Z,2.90
2022-10-28T23:28:59.919Z,2.13
2022-10-28T23:31:27.440Z,2.40
2022-10-28T23:33:55.045Z,2.60
2022-10-28T23:36:22.521Z,2.13
2022-10-28T23:38:49.377Z,1.95
2022-10-28T23:41:18.834Z,2.00
2022-10-28T23:43:46.399Z,2.35
2022-10-28T23:46:13.213Z,2.38
2022-10-28T23:48:40.162Z,1.60
2022-10-28T23:51:07.111Z,1.50
2022-10-28T23:53:34.303Z,2.22
